Alanson, Michigan
Current Conditions -  °F | °C
As of 3:55 PM on Sunday 21 Dec 2014 (Local Time) from KMGN Reporting Station
Overcast Overcast  
Wind Chill: 27°   Ceiling: 1400
Heat Index: 33°   Visibility: 7mi
Dew Point: 29°   Wind: 6mph
Humidity: 85%   Direction: 50°NE
Pressure: 30.12"   Gusts: NA
Location:  45.44°N, 84.79°W
Report Text: KMGN 212055Z AUTO 05005KT 7SM OVC014 00/M01 A3012 RMK AO2 T00051017
Loading
Personal Weather Stations






























Interactive Weather Map New forecast layout! Learn more

10-Day Weather Forecast

Advertisements
Track Severe Weather on mobile